createdAt,value
2023-02-02T00:01:50.859Z,100676.38
2023-02-02T00:04:37.046Z,100669.75
2023-02-02T00:07:05.620Z,100664.63
2023-02-02T00:09:33.923Z,100682.06
2023-02-02T00:12:03.752Z,100690.13
2023-02-02T00:14:31.134Z,100681.06
2023-02-02T00:16:58.707Z,100674.13
2023-02-02T00:19:31.685Z,100678.81
2023-02-02T00:22:00.972Z,100685.03
2023-02-02T00:24:28.105Z,100673.13
2023-02-02T00:27:02.935Z,100678.91
2023-02-02T00:29:31.980Z,100686.44
2023-02-02T00:32:01.510Z,100680.47
2023-02-02T00:34:28.669Z,100691.81
2023-02-02T00:36:55.617Z,100685.03
2023-02-02T00:39:26.207Z,100692.38
2023-02-02T00:41:56.031Z,100702.00
2023-02-02T00:44:41.898Z,100694.34
2023-02-02T00:47:08.786Z,100704.56
2023-02-02T00:49:35.813Z,100723.00
2023-02-02T00:52:03.053Z,100722.72
2023-02-02T00:54:32.507Z,100731.22
2023-02-02T00:56:59.653Z,100745.09
2023-02-02T00:59:28.657Z,100736.19
2023-02-02T01:01:55.827Z,100753.75
2023-02-02T01:04:27.457Z,100746.53
2023-02-02T01:06:54.419Z,100744.13
2023-02-02T01:09:21.477Z,100733.78
2023-02-02T01:11:48.450Z,100752.47
2023-02-02T01:14:18.106Z,100754.03
2023-02-02T01:16:47.874Z,100765.22
2023-02-02T01:19:16.197Z,100762.69
2023-02-02T01:21:43.849Z,100775.44
2023-02-02T01:24:10.897Z,100763.25
2023-02-02T01:26:37.902Z,100745.25
2023-02-02T01:29:04.910Z,100769.47
2023-02-02T01:31:35.123Z,100763.81
2023-02-02T01:34:07.079Z,100768.22
2023-02-02T01:36:36.551Z,100769.63
2023-02-02T01:39:06.217Z,100770.59
2023-02-02T01:41:33.229Z,100780.97
2023-02-02T01:44:06.788Z,100772.03
2023-02-02T01:46:39.394Z,100784.50
2023-02-02T01:49:21.156Z,100788.03
2023-02-02T01:51:58.274Z,100786.47
2023-02-02T01:54:46.152Z,100792.31
2023-02-02T01:57:17.095Z,100803.34
2023-02-02T01:59:46.236Z,100808.91
2023-02-02T02:02:13.708Z,100806.06
2023-02-02T02:04:42.347Z,100811.00
2023-02-02T02:07:12.269Z,100802.22
2023-02-02T02:09:39.543Z,100808.88
2023-02-02T02:12:15.631Z,100812.00
2023-02-02T02:15:10.093Z,100802.09
2023-02-02T02:18:04.719Z,100805.75
2023-02-02T02:21:35.879Z,100823.31
2023-02-02T02:26:05.885Z,100834.56
2023-02-02T02:28:57.296Z,100836.13
2023-02-02T02:31:33.577Z,100835.25
2023-02-02T02:34:08.490Z,100842.06
2023-02-02T02:37:02.709Z,100844.34
2023-02-02T02:40:02.794Z,100855.25
2023-02-02T02:42:39.279Z,100862.50
2023-02-02T02:45:14.318Z,100867.59
2023-02-02T02:47:45.009Z,100858.09
2023-02-02T02:50:12.427Z,100877.53
2023-02-02T02:52:40.700Z,100877.09
2023-02-02T02:55:10.775Z,100863.91
2023-02-02T02:57:58.861Z,100874.25
2023-02-02T03:00:50.090Z,100881.22
2023-02-02T03:03:33.057Z,100881.22
2023-02-02T03:06:08.857Z,100876.25
2023-02-02T03:08:48.530Z,100877.38
2023-02-02T03:11:17.326Z,100876.41
2023-02-02T03:13:44.800Z,100892.56
2023-02-02T03:16:11.971Z,100882.34
2023-02-02T03:18:39.631Z,100896.41
2023-02-02T03:21:06.655Z,100887.72
2023-02-02T03:23:36.238Z,100897.66
2023-02-02T03:26:03.335Z,100914.13
2023-02-02T03:28:33.323Z,100906.75
2023-02-02T03:31:04.088Z,100911.13
2023-02-02T03:33:33.399Z,100904.31
2023-02-02T03:36:00.539Z,100912.41
2023-02-02T03:38:32.264Z,100917.78
2023-02-02T03:40:59.235Z,100923.34
2023-02-02T03:43:26.271Z,100927.72
2023-02-02T03:46:04.493Z,100937.66
2023-02-02T03:48:35.379Z,100939.66
2023-02-02T03:51:07.671Z,100938.69
2023-02-02T03:53:37.649Z,100945.28
2023-02-02T03:56:05.426Z,100947.28
2023-02-02T03:58:32.536Z,100954.97
2023-02-02T04:01:16.475Z,100962.06
2023-02-02T04:03:43.825Z,100960.66
2023-02-02T04:06:20.927Z,100965.75
2023-02-02T04:08:50.216Z,100967.13
2023-02-02T04:11:18.975Z,100972.72
2023-02-02T04:13:48.219Z,100971.88
2023-02-02T04:16:16.377Z,100974.84
2023-02-02T04:18:43.553Z,100983.06
2023-02-02T04:21:15.507Z,100974.94
2023-02-02T04:23:42.361Z,100988.97
2023-02-02T04:26:09.291Z,100994.50
2023-02-02T04:28:36.902Z,100990.34
2023-02-02T04:31:07.058Z,100998.22
2023-02-02T04:33:35.841Z,100996.00
2023-02-02T04:36:03.226Z,101007.72
2023-02-02T04:38:30.214Z,100996.00
2023-02-02T04:40:59.454Z,101010.75
2023-02-02T04:43:26.383Z,101011.44
2023-02-02T04:45:57.564Z,101006.38
2023-02-02T04:48:29.516Z,101012.19
2023-02-02T04:51:06.240Z,101013.03
2023-02-02T04:53:33.661Z,101016.09
2023-02-02T04:56:30.134Z,101016.06
2023-02-02T04:58:57.172Z,101024.63
2023-02-02T05:01:24.757Z,101020.81
2023-02-02T05:03:52.246Z,101020.00
2023-02-02T05:06:19.791Z,101022.97
2023-02-02T05:08:48.975Z,101024.09
2023-02-02T05:11:19.856Z,101031.72
2023-02-02T05:13:56.470Z,101036.47
2023-02-02T05:16:25.947Z,101036.28
2023-02-02T05:18:57.023Z,101038.19
2023-02-02T05:21:27.045Z,101035.66
2023-02-02T05:23:54.024Z,101040.72
2023-02-02T05:26:28.850Z,101043.56
2023-02-02T05:28:59.583Z,101049.13
2023-02-02T05:31:30.038Z,101049.56
2023-02-02T05:33:57.186Z,101040.88
2023-02-02T05:36:24.379Z,101044.00
2023-02-02T05:38:53.779Z,101052.91
2023-02-02T05:41:20.933Z,101045.63
2023-02-02T05:43:47.883Z,101055.56
2023-02-02T05:46:15.095Z,101068.34
2023-02-02T05:48:42.271Z,101075.81
2023-02-02T05:51:31.450Z,101075.69
2023-02-02T05:54:00.679Z,101078.97
2023-02-02T05:56:28.509Z,101084.97
2023-02-02T05:58:57.690Z,101084.09
2023-02-02T06:01:25.203Z,101074.19
2023-02-02T06:03:55.006Z,101086.09
2023-02-02T06:06:22.023Z,101084.13
2023-02-02T06:08:51.135Z,101083.78
2023-02-02T06:11:22.369Z,101089.88
2023-02-02T06:13:50.060Z,101083.53
2023-02-02T06:16:21.472Z,101092.97
2023-02-02T06:18:48.760Z,101100.41
2023-02-02T06:21:15.796Z,101096.16
2023-02-02T06:23:46.092Z,101094.25
2023-02-02T06:26:14.379Z,101103.44
2023-02-02T06:28:48.018Z,101116.69
2023-02-02T06:31:19.248Z,101114.28
2023-02-02T06:33:57.629Z,101123.38
2023-02-02T06:36:28.572Z,101121.31
2023-02-02T06:38:57.360Z,101134.75
2023-02-02T06:41:25.086Z,101141.16
2023-02-02T06:43:52.729Z,101134.41
2023-02-02T06:46:19.834Z,101138.13
2023-02-02T06:48:46.784Z,101134.22
2023-02-02T06:51:16.137Z,101145.88
2023-02-02T06:53:47.672Z,101145.69
2023-02-02T06:56:17.697Z,101149.53
2023-02-02T06:58:44.732Z,101147.28
2023-02-02T07:01:14.864Z,101151.94
2023-02-02T07:03:42.270Z,101152.63
2023-02-02T07:06:18.811Z,101151.72
2023-02-02T07:08:59.289Z,101163.53
2023-02-02T07:11:37.633Z,101157.88
2023-02-02T07:14:09.395Z,101163.53
2023-02-02T07:16:38.589Z,101161.97
2023-02-02T07:19:08.022Z,101175.44
2023-02-02T07:21:39.610Z,101173.47
2023-02-02T07:24:07.325Z,101190.13
2023-02-02T07:26:37.979Z,101192.31
2023-02-02T07:29:07.496Z,101197.22
2023-02-02T07:31:36.651Z,101206.06
2023-02-02T07:34:06.377Z,101213.53
2023-02-02T07:36:33.724Z,101209.53
2023-02-02T07:39:03.964Z,101223.25
2023-02-02T07:41:34.972Z,101222.13
2023-02-02T07:44:05.466Z,101221.97
2023-02-02T07:46:37.329Z,101225.25
2023-02-02T07:49:07.946Z,101234.03
2023-02-02T07:51:39.163Z,101246.69
2023-02-02T07:54:10.188Z,101243.28
2023-02-02T07:56:40.023Z,101240.66
2023-02-02T07:59:07.129Z,101237.53
2023-02-02T08:01:34.174Z,101238.16
2023-02-02T08:04:06.854Z,101247.13
2023-02-02T08:06:37.432Z,101250.63
2023-02-02T08:09:10.438Z,101257.75
2023-02-02T08:11:38.728Z,101266.31
2023-02-02T08:14:06.759Z,101265.88
2023-02-02T08:16:34.461Z,101270.59
2023-02-02T08:19:01.959Z,101282.25
2023-02-02T08:21:35.447Z,101281.31
2023-02-02T08:24:05.284Z,101290.00
2023-02-02T08:26:35.319Z,101288.88
2023-02-02T08:29:08.156Z,101293.19
2023-02-02T08:31:38.497Z,101294.88
2023-02-02T08:34:06.173Z,101303.97
2023-02-02T08:36:35.413Z,101313.38
2023-02-02T08:39:09.945Z,101307.53
2023-02-02T08:41:39.880Z,101307.97
2023-02-02T08:44:15.848Z,101321.91
2023-02-02T08:46:48.191Z,101321.91
2023-02-02T08:49:15.458Z,101330.44
2023-02-02T08:51:43.085Z,101326.44
2023-02-02T08:54:09.933Z,101336.06
2023-02-02T08:56:36.864Z,101342.50
2023-02-02T08:59:06.454Z,101346.50
2023-02-02T09:01:37.562Z,101337.53
2023-02-02T09:04:07.831Z,101339.25
2023-02-02T09:06:42.803Z,101343.53
2023-02-02T09:09:14.355Z,101348.94
2023-02-02T09:11:43.893Z,101356.63
2023-02-02T09:14:14.757Z,101365.03
2023-02-02T09:16:44.202Z,101362.59
2023-02-02T09:19:13.847Z,101369.56
2023-02-02T09:21:45.367Z,101369.00
2023-02-02T09:24:14.342Z,101366.00
2023-02-02T09:26:44.977Z,101367.53
2023-02-02T09:29:18.138Z,101373.13
2023-02-02T09:31:45.785Z,101382.34
2023-02-02T09:34:15.014Z,101381.88
2023-02-02T09:36:46.480Z,101382.94
2023-02-02T09:39:15.169Z,101400.00
2023-02-02T09:41:56.042Z,101399.94
2023-02-02T09:44:59.850Z,101396.75
2023-02-02T09:47:51.023Z,101407.63
2023-02-02T09:50:40.237Z,101413.69
2023-02-02T09:53:09.882Z,101411.94
2023-02-02T09:55:48.884Z,101416.09
2023-02-02T09:58:35.470Z,101417.72
2023-02-02T10:01:27.291Z,101436.22
2023-02-02T10:04:26.990Z,101425.00
2023-02-02T10:06:57.949Z,101427.59
2023-02-02T10:09:44.455Z,101427.16
2023-02-02T10:12:40.897Z,101435.31
2023-02-02T10:15:49.132Z,101446.88
2023-02-02T10:18:34.226Z,101443.97
2023-02-02T10:21:16.458Z,101441.09
2023-02-02T10:23:46.645Z,101445.66
2023-02-02T10:26:39.951Z,101448.81
2023-02-02T10:29:28.072Z,101441.03
2023-02-02T10:32:23.240Z,101453.81
2023-02-02T10:35:28.968Z,101463.00
2023-02-02T10:38:56.039Z,101457.66
2023-02-02T10:41:28.700Z,101472.06
2023-02-02T10:44:37.840Z,101485.63
2023-02-02T10:47:13.059Z,101479.84
2023-02-02T10:49:41.425Z,101501.28
2023-02-02T10:52:18.177Z,101495.31
2023-02-02T10:55:20.823Z,101505.81
2023-02-02T10:58:24.562Z,101520.41
2023-02-02T11:00:58.103Z,101513.41
2023-02-02T11:03:32.235Z,101511.72
2023-02-02T11:06:23.090Z,101512.19
2023-02-02T11:08:56.813Z,101512.50
2023-02-02T11:11:35.122Z,101516.19
2023-02-02T11:14:10.259Z,101522.53
2023-02-02T11:16:45.714Z,101518.13
2023-02-02T11:19:19.675Z,101522.47
2023-02-02T11:21:50.630Z,101525.16
2023-02-02T11:24:47.775Z,101524.94
2023-02-02T11:27:20.413Z,101533.38
2023-02-02T11:29:53.197Z,101533.28
2023-02-02T11:32:29.684Z,101529.75
2023-02-02T11:35:02.723Z,101527.41
2023-02-02T11:37:38.200Z,101518.03
2023-02-02T11:40:27.266Z,101521.41
2023-02-02T11:43:02.467Z,101515.28
2023-02-02T11:45:44.479Z,101519.47
2023-02-02T11:48:22.372Z,101524.63
2023-02-02T11:50:54.826Z,101522.59
2023-02-02T11:53:46.871Z,101521.25
2023-02-02T11:56:20.415Z,101519.78
2023-02-02T11:58:50.467Z,101524.84
2023-02-02T12:01:31.294Z,101528.81
2023-02-02T12:04:01.740Z,101529.41
2023-02-02T12:06:38.274Z,101530.13
2023-02-02T12:09:17.379Z,101529.19
2023-02-02T12:12:18.177Z,101530.50
2023-02-02T12:16:09.144Z,101515.09
2023-02-02T12:19:17.887Z,101536.78
2023-02-02T12:22:24.382Z,101524.53
2023-02-02T12:24:56.021Z,101526.69
2023-02-02T12:28:01.568Z,101541.34
2023-02-02T12:31:08.092Z,101540.72
2023-02-02T12:33:58.261Z,101553.19
2023-02-02T12:36:51.963Z,101547.94
2023-02-02T12:40:14.585Z,101552.72
2023-02-02T12:42:44.195Z,101552.88
2023-02-02T12:45:33.656Z,101563.44
2023-02-02T12:48:45.515Z,101551.81
2023-02-02T12:51:52.089Z,101554.91
2023-02-02T12:54:45.489Z,101546.88
2023-02-02T12:57:17.761Z,101553.38
2023-02-02T13:00:11.277Z,101551.84
2023-02-02T13:03:25.798Z,101547.53
2023-02-02T13:06:28.713Z,101548.97
2023-02-02T13:09:06.302Z,101556.81
2023-02-02T13:11:42.243Z,101549.78
2023-02-02T13:14:15.892Z,101550.38
2023-02-02T13:16:48.686Z,101558.44
2023-02-02T13:19:31.184Z,101557.94
2023-02-02T13:22:01.018Z,101561.72
2023-02-02T13:24:37.603Z,101562.06
2023-02-02T13:27:07.881Z,101560.09
2023-02-02T13:29:58.865Z,101565.44
2023-02-02T13:32:38.608Z,101566.75
2023-02-02T13:35:16.175Z,101575.13
2023-02-02T13:37:55.426Z,101581.72
2023-02-02T13:40:32.162Z,101577.78
2023-02-02T13:43:34.932Z,101577.66
2023-02-02T13:46:40.824Z,101580.66
2023-02-02T13:49:25.706Z,101578.78
2023-02-02T13:52:15.003Z,101581.53
2023-02-02T13:54:57.543Z,101582.34
2023-02-02T13:57:43.477Z,101588.91
2023-02-02T14:00:13.147Z,101598.25
2023-02-02T14:02:57.085Z,101589.34
2023-02-02T14:05:35.747Z,101599.06
2023-02-02T14:08:22.545Z,101598.91
2023-02-02T14:10:52.597Z,101601.69
2023-02-02T14:13:41.487Z,101598.06
2023-02-02T14:16:40.554Z,101591.66
2023-02-02T14:19:35.437Z,101598.22
2023-02-02T14:22:41.089Z,101597.44
2023-02-02T14:25:34.322Z,101608.66
2023-02-02T14:28:10.632Z,101604.78
2023-02-02T14:30:39.621Z,101609.34
2023-02-02T14:33:24.182Z,101615.19
2023-02-02T14:35:53.919Z,101613.75
2023-02-02T14:38:36.419Z,101613.75
2023-02-02T14:41:41.716Z,101621.38
2023-02-02T14:44:08.858Z,101620.13
2023-02-02T14:46:41.027Z,101618.63
2023-02-02T14:49:15.805Z,101629.22
2023-02-02T14:51:56.397Z,101633.09
2023-02-02T14:54:32.587Z,101636.59
2023-02-02T14:57:22.237Z,101640.50
2023-02-02T14:59:49.976Z,101638.66
2023-02-02T15:02:29.936Z,101648.03
2023-02-02T15:05:34.286Z,101662.00
2023-02-02T15:08:27.263Z,101671.53
2023-02-02T15:11:26.952Z,101673.06
2023-02-02T15:14:06.980Z,101675.41
2023-02-02T15:16:37.448Z,101674.97
2023-02-02T15:19:25.064Z,101674.97
2023-02-02T15:21:56.139Z,101685.03
2023-02-02T15:24:36.007Z,101685.25
2023-02-02T15:27:04.653Z,101698.94
2023-02-02T15:29:43.917Z,101693.03
2023-02-02T15:32:20.420Z,101705.81
2023-02-02T15:34:53.045Z,101703.84
2023-02-02T15:37:30.145Z,101709.19
2023-02-02T15:40:00.909Z,101705.88
2023-02-02T15:42:54.385Z,101715.03
2023-02-02T15:45:44.475Z,101709.25
2023-02-02T15:48:30.403Z,101725.63
2023-02-02T15:51:03.771Z,101723.75
2023-02-02T15:53:46.321Z,101721.38
2023-02-02T15:56:21.104Z,101728.66
2023-02-02T15:58:53.583Z,101730.53
2023-02-02T16:01:23.913Z,101739.94
2023-02-02T16:03:59.948Z,101745.66
2023-02-02T16:06:31.175Z,101750.63
2023-02-02T16:08:58.888Z,101754.19
2023-02-02T16:11:25.887Z,101757.59
2023-02-02T16:14:05.729Z,101761.03
2023-02-02T16:16:41.742Z,101767.25
2023-02-02T16:19:10.789Z,101774.38
2023-02-02T16:22:02.198Z,101784.34
2023-02-02T16:24:36.497Z,101782.28
2023-02-02T16:27:07.835Z,101787.47
2023-02-02T16:29:35.617Z,101786.41
2023-02-02T16:32:04.404Z,101786.25
2023-02-02T16:34:40.651Z,101792.38
2023-02-02T16:37:32.150Z,101802.75
2023-02-02T16:40:29.744Z,101800.09
2023-02-02T16:43:19.630Z,101789.75
2023-02-02T16:45:56.825Z,101796.66
2023-02-02T16:48:46.683Z,101793.03
2023-02-02T16:51:16.668Z,101788.81
2023-02-02T16:54:06.305Z,101793.31
2023-02-02T16:56:41.049Z,101802.13
2023-02-02T16:59:30.285Z,101789.84
2023-02-02T17:02:22.142Z,101793.56
2023-02-02T17:04:57.055Z,101792.16
2023-02-02T17:07:26.725Z,101793.44
2023-02-02T17:10:18.044Z,101793.47
2023-02-02T17:12:50.278Z,101785.91
2023-02-02T17:15:17.123Z,101798.63
2023-02-02T17:17:48.957Z,101800.72
2023-02-02T17:20:20.990Z,101803.34
2023-02-02T17:23:02.672Z,101792.47
2023-02-02T17:25:41.492Z,101800.63
2023-02-02T17:28:13.692Z,101801.31
2023-02-02T17:30:43.682Z,101811.22
2023-02-02T17:33:19.752Z,101803.22
2023-02-02T17:35:55.847Z,101806.59
2023-02-02T17:38:25.299Z,101809.78
2023-02-02T17:40:53.017Z,101814.78
2023-02-02T17:43:20.529Z,101818.91
2023-02-02T17:45:50.524Z,101813.94
2023-02-02T17:48:20.698Z,101810.63
2023-02-02T17:50:50.408Z,101816.91
2023-02-02T17:53:22.397Z,101813.03
2023-02-02T17:55:51.557Z,101812.06
2023-02-02T17:58:21.710Z,101810.59
2023-02-02T18:00:54.077Z,101796.38
2023-02-02T18:03:30.936Z,101805.72
2023-02-02T18:06:02.215Z,101810.16
2023-02-02T18:08:31.780Z,101802.06
2023-02-02T18:10:59.678Z,101796.03
2023-02-02T18:13:27.315Z,101794.13
2023-02-02T18:15:56.101Z,101797.88
2023-02-02T18:18:23.404Z,101789.44
2023-02-02T18:20:53.456Z,101803.28
2023-02-02T18:23:24.638Z,101805.25
2023-02-02T18:25:53.069Z,101816.41
2023-02-02T18:28:24.688Z,101808.19
2023-02-02T18:30:53.986Z,101801.31
2023-02-02T18:33:20.922Z,101802.31
2023-02-02T18:35:48.573Z,101794.56
2023-02-02T18:38:16.017Z,101791.00
2023-02-02T18:40:45.603Z,101802.03
2023-02-02T18:43:19.659Z,101794.03
2023-02-02T18:45:46.699Z,101798.56
2023-02-02T18:48:19.679Z,101805.91
2023-02-02T18:50:46.744Z,101796.84
2023-02-02T18:53:17.849Z,101790.03
2023-02-02T18:55:47.411Z,101784.59
2023-02-02T18:58:17.133Z,101782.50
2023-02-02T19:00:46.394Z,101782.38
2023-02-02T19:03:13.523Z,101781.63
2023-02-02T19:05:59.430Z,101781.97
2023-02-02T19:08:32.426Z,101781.41
2023-02-02T19:11:20.093Z,101791.25
2023-02-02T19:13:47.746Z,101788.84
2023-02-02T19:16:30.131Z,101781.53
2023-02-02T19:19:04.256Z,101785.03
2023-02-02T19:21:34.787Z,101783.59
2023-02-02T19:24:04.169Z,101785.56
2023-02-02T19:26:45.436Z,101768.53
2023-02-02T19:29:22.578Z,101763.75
2023-02-02T19:32:21.827Z,101748.31
2023-02-02T19:35:01.772Z,101745.97
2023-02-02T19:37:43.264Z,101746.72
2023-02-02T19:40:13.659Z,101737.72
2023-02-02T19:42:48.639Z,101727.69
2023-02-02T19:45:33.360Z,101721.91
2023-02-02T19:48:17.803Z,101726.34
2023-02-02T19:50:47.980Z,101721.44
2023-02-02T19:53:35.540Z,101726.22
2023-02-02T19:56:13.911Z,101722.31
2023-02-02T19:58:44.765Z,101725.50
2023-02-02T20:01:20.490Z,101729.66
2023-02-02T20:03:53.194Z,101718.88
2023-02-02T20:06:25.753Z,101714.34
2023-02-02T20:08:53.645Z,101718.66
2023-02-02T20:11:24.454Z,101716.19
2023-02-02T20:13:57.347Z,101709.81
2023-02-02T20:16:28.713Z,101710.78
2023-02-02T20:18:58.403Z,101704.78
2023-02-02T20:21:37.564Z,101702.59
2023-02-02T20:24:20.106Z,101700.78
2023-02-02T20:26:48.394Z,101705.44
2023-02-02T20:29:27.305Z,101698.78
2023-02-02T20:32:00.146Z,101700.25
2023-02-02T20:34:33.831Z,101711.22
2023-02-02T20:37:30.794Z,101697.78
2023-02-02T20:40:01.606Z,101698.16
2023-02-02T20:42:32.846Z,101700.69
2023-02-02T20:45:00.064Z,101696.94
2023-02-02T20:47:27.334Z,101694.34
2023-02-02T20:49:54.524Z,101687.28
2023-02-02T20:52:26.609Z,101687.16
2023-02-02T20:54:53.762Z,101695.72
2023-02-02T20:57:20.819Z,101687.44
2023-02-02T20:59:47.889Z,101684.16
2023-02-02T21:02:19.656Z,101682.84
2023-02-02T21:04:51.576Z,101678.66
2023-02-02T21:07:22.404Z,101673.25
2023-02-02T21:09:51.181Z,101671.94
2023-02-02T21:12:18.555Z,101671.00
2023-02-02T21:14:45.414Z,101664.63
2023-02-02T21:17:15.547Z,101662.19
2023-02-02T21:19:43.644Z,101664.13
2023-02-02T21:22:11.628Z,101658.84
2023-02-02T21:24:38.895Z,101653.09
2023-02-02T21:27:09.026Z,101640.19
2023-02-02T21:29:38.543Z,101637.81
2023-02-02T21:32:06.569Z,101637.22
2023-02-02T21:34:37.710Z,101637.19
2023-02-02T21:37:16.660Z,101637.69
2023-02-02T21:39:49.649Z,101635.00
2023-02-02T21:42:22.207Z,101630.91
2023-02-02T21:44:58.064Z,101635.75
2023-02-02T21:47:56.745Z,101643.59
2023-02-02T21:50:40.479Z,101641.09
2023-02-02T21:53:26.377Z,101638.38
2023-02-02T21:56:02.885Z,101641.28
2023-02-02T21:58:40.290Z,101640.44
2023-02-02T22:01:34.045Z,101629.28
2023-02-02T22:04:00.986Z,101612.66
2023-02-02T22:06:36.520Z,101614.81
2023-02-02T22:09:12.267Z,101617.94
2023-02-02T22:11:58.577Z,101612.41
2023-02-02T22:14:39.911Z,101602.38
2023-02-02T22:17:24.703Z,101597.03
2023-02-02T22:20:00.719Z,101598.06
2023-02-02T22:22:36.105Z,101586.75
2023-02-02T22:25:30.611Z,101580.78
2023-02-02T22:28:05.055Z,101579.31
2023-02-02T22:30:40.754Z,101563.94
2023-02-02T22:33:11.493Z,101553.84
2023-02-02T22:35:41.579Z,101552.19
2023-02-02T22:38:15.369Z,101546.66
2023-02-02T22:40:42.404Z,101535.41
2023-02-02T22:43:13.404Z,101533.75
2023-02-02T22:45:43.052Z,101533.72
2023-02-02T22:48:10.119Z,101516.66
2023-02-02T22:50:37.737Z,101509.09
2023-02-02T22:53:05.672Z,101506.84
2023-02-02T22:55:33.567Z,101503.41
2023-02-02T22:58:03.131Z,101496.44
2023-02-02T23:00:37.928Z,101502.41
2023-02-02T23:03:07.619Z,101492.03
2023-02-02T23:05:34.550Z,101498.34
2023-02-02T23:08:04.303Z,101490.31
2023-02-02T23:10:35.829Z,101482.91
2023-02-02T23:13:06.275Z,101478.97
2023-02-02T23:15:34.792Z,101459.16
2023-02-02T23:18:02.819Z,101457.91
2023-02-02T23:20:29.912Z,101453.44
2023-02-02T23:22:57.185Z,101462.72
2023-02-02T23:25:24.306Z,101458.06
2023-02-02T23:27:51.557Z,101452.88
2023-02-02T23:30:21.203Z,101444.31
2023-02-02T23:32:50.789Z,101436.41
2023-02-02T23:35:17.892Z,101429.25
2023-02-02T23:37:45.114Z,101430.69
2023-02-02T23:40:15.240Z,101424.34
2023-02-02T23:42:42.284Z,101417.31
2023-02-02T23:45:10.042Z,101410.63
2023-02-02T23:47:37.270Z,101416.44
2023-02-02T23:50:07.051Z,101404.47
2023-02-02T23:52:41.634Z,101385.13
2023-02-02T23:55:11.775Z,101393.44
2023-02-02T23:57:43.405Z,101388.28
